sensor_id;sensor_type;location;lat;lon;timestamp;temperature;humidity
59572;DHT22;59406;45.602;11.904;2022-09-16T00:02:22;21.10;81.80
59572;DHT22;59406;45.602;11.904;2022-09-16T00:04:48;21.10;81.70
59572;DHT22;59406;45.602;11.904;2022-09-16T00:07:14;21.10;81.80
59572;DHT22;59406;45.602;11.904;2022-09-16T00:09:40;21.00;81.90
59572;DHT22;59406;45.602;11.904;2022-09-16T00:12:06;21.00;82.30
59572;DHT22;59406;45.602;11.904;2022-09-16T00:14:32;20.90;82.20
59572;DHT22;59406;45.602;11.904;2022-09-16T00:16:58;21.00;81.80
59572;DHT22;59406;45.602;11.904;2022-09-16T00:19:24;21.00;81.80
59572;DHT22;59406;45.602;11.904;2022-09-16T00:21:50;21.10;81.60
59572;DHT22;59406;45.602;11.904;2022-09-16T00:24:19;21.10;81.50
59572;DHT22;59406;45.602;11.904;2022-09-16T00:26:45;21.10;81.60
59572;DHT22;59406;45.602;11.904;2022-09-16T00:29:11;21.10;81.50
59572;DHT22;59406;45.602;11.904;2022-09-16T00:31:37;21.10;81.90
59572;DHT22;59406;45.602;11.904;2022-09-16T00:34:03;21.00;82.10
59572;DHT22;59406;45.602;11.904;2022-09-16T00:36:29;20.90;83.30
59572;DHT22;59406;45.602;11.904;2022-09-16T00:38:56;20.90;82.20
59572;DHT22;59406;45.602;11.904;2022-09-16T00:41:28;20.90;83.30
59572;DHT22;59406;45.602;11.904;2022-09-16T00:47:05;20.80;83.70
59572;DHT22;59406;45.602;11.904;2022-09-16T00:49:31;20.80;83.40
59572;DHT22;59406;45.602;11.904;2022-09-16T00:52:01;20.60;83.80
59572;DHT22;59406;45.602;11.904;2022-09-16T00:54:29;20.70;83.80
59572;DHT22;59406;45.602;11.904;2022-09-16T00:56:57;20.80;83.80
59572;DHT22;59406;45.602;11.904;2022-09-16T00:59:30;20.70;84.00
59572;DHT22;59406;45.602;11.904;2022-09-16T01:01:59;20.80;83.80
59572;DHT22;59406;45.602;11.904;2022-09-16T01:04:33;20.60;83.90
59572;DHT22;59406;45.602;11.904;2022-09-16T01:07:01;20.60;84.20
59572;DHT22;59406;45.602;11.904;2022-09-16T01:09:29;20.60;84.00
59572;DHT22;59406;45.602;11.904;2022-09-16T01:11:55;20.50;83.90
59572;DHT22;59406;45.602;11.904;2022-09-16T01:14:23;20.50;84.20
59572;DHT22;59406;45.602;11.904;2022-09-16T01:20:09;20.50;84.20
59572;DHT22;59406;45.602;11.904;2022-09-16T01:25:28;20.40;84.10
59572;DHT22;59406;45.602;11.904;2022-09-16T01:50:54;20.10;86.00
59572;DHT22;59406;45.602;11.904;2022-09-16T01:55:54;20.20;84.90
59572;DHT22;59406;45.602;11.904;2022-09-16T02:02:07;20.30;85.40
59572;DHT22;59406;45.602;11.904;2022-09-16T02:04:06;20.20;85.00
59572;DHT22;59406;45.602;11.904;2022-09-16T02:06:36;20.30;85.30
59572;DHT22;59406;45.602;11.904;2022-09-16T02:09:08;20.20;85.30
59572;DHT22;59406;45.602;11.904;2022-09-16T02:11:37;20.20;85.00
59572;DHT22;59406;45.602;11.904;2022-09-16T02:14:09;20.20;85.30
59572;DHT22;59406;45.602;11.904;2022-09-16T02:17:09;20.30;85.00
59572;DHT22;59406;45.602;11.904;2022-09-16T02:22:48;20.30;85.20
59572;DHT22;59406;45.602;11.904;2022-09-16T02:25:18;20.40;85.20
59572;DHT22;59406;45.602;11.904;2022-09-16T02:27:46;20.40;84.90
59572;DHT22;59406;45.602;11.904;2022-09-16T02:30:19;20.40;84.90
59572;DHT22;59406;45.602;11.904;2022-09-16T02:32:48;20.40;85.20
59572;DHT22;59406;45.602;11.904;2022-09-16T02:35:17;20.50;85.40
59572;DHT22;59406;45.602;11.904;2022-09-16T02:37:49;20.50;85.10
59572;DHT22;59406;45.602;11.904;2022-09-16T02:40:31;20.50;85.20
59572;DHT22;59406;45.602;11.904;2022-09-16T02:42:59;20.40;85.30
59572;DHT22;59406;45.602;11.904;2022-09-16T02:45:36;20.50;84.90
59572;DHT22;59406;45.602;11.904;2022-09-16T02:48:14;20.50;84.70
59572;DHT22;59406;45.602;11.904;2022-09-16T02:50:56;20.50;85.40
59572;DHT22;59406;45.602;11.904;2022-09-16T02:56:40;20.40;85.20
59572;DHT22;59406;45.602;11.904;2022-09-16T02:59:09;20.30;85.60
59572;DHT22;59406;45.602;11.904;2022-09-16T03:01:42;20.30;85.20
59572;DHT22;59406;45.602;11.904;2022-09-16T03:04:10;20.20;85.10
59572;DHT22;59406;45.602;11.904;2022-09-16T03:06:37;20.20;85.00
59572;DHT22;59406;45.602;11.904;2022-09-16T03:09:06;20.30;85.60
59572;DHT22;59406;45.602;11.904;2022-09-16T03:14:18;20.20;85.10
59572;DHT22;59406;45.602;11.904;2022-09-16T03:25:20;20.00;85.70
59572;DHT22;59406;45.602;11.904;2022-09-16T03:28:03;20.10;85.60
59572;DHT22;59406;45.602;11.904;2022-09-16T03:30:36;20.10;85.60
59572;DHT22;59406;45.602;11.904;2022-09-16T03:33:19;20.10;85.70
59572;DHT22;59406;45.602;11.904;2022-09-16T03:35:49;20.20;86.00
59572;DHT22;59406;45.602;11.904;2022-09-16T03:38:17;20.20;85.60
59572;DHT22;59406;45.602;11.904;2022-09-16T03:40:47;20.40;85.80
59572;DHT22;59406;45.602;11.904;2022-09-16T03:43:15;20.40;85.80
59572;DHT22;59406;45.602;11.904;2022-09-16T03:45:42;20.50;85.40
59572;DHT22;59406;45.602;11.904;2022-09-16T03:48:10;20.60;85.60
59572;DHT22;59406;45.602;11.904;2022-09-16T03:50:36;20.70;85.20
59572;DHT22;59406;45.602;11.904;2022-09-16T03:53:03;20.60;85.20
59572;DHT22;59406;45.602;11.904;2022-09-16T03:55:29;20.70;85.00
59572;DHT22;59406;45.602;11.904;2022-09-16T03:57:55;20.70;85.40
59572;DHT22;59406;45.602;11.904;2022-09-16T04:00:21;20.80;85.20
59572;DHT22;59406;45.602;11.904;2022-09-16T04:02:48;20.80;84.70
59572;DHT22;59406;45.602;11.904;2022-09-16T04:05:14;21.00;84.10
59572;DHT22;59406;45.602;11.904;2022-09-16T04:07:40;21.00;83.40
59572;DHT22;59406;45.602;11.904;2022-09-16T04:10:07;21.10;83.70
59572;DHT22;59406;45.602;11.904;2022-09-16T04:12:33;21.10;83.40
59572;DHT22;59406;45.602;11.904;2022-09-16T04:14:59;21.20;83.50
59572;DHT22;59406;45.602;11.904;2022-09-16T04:17:25;21.30;83.20
59572;DHT22;59406;45.602;11.904;2022-09-16T04:19:51;21.30;83.40
59572;DHT22;59406;45.602;11.904;2022-09-16T04:22:17;21.30;83.20
59572;DHT22;59406;45.602;11.904;2022-09-16T04:24:43;21.40;83.20
59572;DHT22;59406;45.602;11.904;2022-09-16T04:27:09;21.40;83.10
59572;DHT22;59406;45.602;11.904;2022-09-16T04:29:35;21.50;83.10
59572;DHT22;59406;45.602;11.904;2022-09-16T04:32:02;21.50;83.00
59572;DHT22;59406;45.602;11.904;2022-09-16T04:34:28;21.50;83.00
59572;DHT22;59406;45.602;11.904;2022-09-16T04:36:54;21.50;82.90
59572;DHT22;59406;45.602;11.904;2022-09-16T04:39:20;21.50;82.90
59572;DHT22;59406;45.602;11.904;2022-09-16T04:41:46;21.60;82.80
59572;DHT22;59406;45.602;11.904;2022-09-16T04:44:12;21.60;82.70
59572;DHT22;59406;45.602;11.904;2022-09-16T04:46:38;21.60;82.70
59572;DHT22;59406;45.602;11.904;2022-09-16T04:49:04;21.50;82.70
59572;DHT22;59406;45.602;11.904;2022-09-16T04:51:30;21.50;82.90
59572;DHT22;59406;45.602;11.904;2022-09-16T04:53:58;21.50;82.80
59572;DHT22;59406;45.602;11.904;2022-09-16T04:56:29;21.50;82.90
59572;DHT22;59406;45.602;11.904;2022-09-16T04:58:58;21.50;82.90
59572;DHT22;59406;45.602;11.904;2022-09-16T05:01:27;21.50;83.00
59572;DHT22;59406;45.602;11.904;2022-09-16T05:03:57;21.50;82.80
59572;DHT22;59406;45.602;11.904;2022-09-16T05:06:26;21.50;83.00
59572;DHT22;59406;45.602;11.904;2022-09-16T05:08:53;21.60;83.00
59572;DHT22;59406;45.602;11.904;2022-09-16T05:11:22;21.50;83.00
59572;DHT22;59406;45.602;11.904;2022-09-16T05:13:48;21.50;83.00
59572;DHT22;59406;45.602;11.904;2022-09-16T05:16:19;21.50;83.00
59572;DHT22;59406;45.602;11.904;2022-09-16T05:18:49;21.60;82.90
59572;DHT22;59406;45.602;11.904;2022-09-16T05:21:18;21.50;82.90
59572;DHT22;59406;45.602;11.904;2022-09-16T05:23:46;21.50;83.00
59572;DHT22;59406;45.602;11.904;2022-09-16T05:26:15;21.60;83.00
59572;DHT22;59406;45.602;11.904;2022-09-16T05:28:41;21.70;82.90
59572;DHT22;59406;45.602;11.904;2022-09-16T05:31:13;21.70;82.70
59572;DHT22;59406;45.602;11.904;2022-09-16T05:33:40;21.70;82.60
59572;DHT22;59406;45.602;11.904;2022-09-16T05:36:12;21.80;82.50
59572;DHT22;59406;45.602;11.904;2022-09-16T05:38:38;21.90;82.50
59572;DHT22;59406;45.602;11.904;2022-09-16T05:41:05;21.90;82.50
59572;DHT22;59406;45.602;11.904;2022-09-16T05:43:32;22.00;82.50
59572;DHT22;59406;45.602;11.904;2022-09-16T05:45:59;22.00;82.50
59572;DHT22;59406;45.602;11.904;2022-09-16T05:48:26;22.10;82.30
59572;DHT22;59406;45.602;11.904;2022-09-16T05:50:54;22.20;82.20
59572;DHT22;59406;45.602;11.904;2022-09-16T05:53:20;22.30;82.20
59572;DHT22;59406;45.602;11.904;2022-09-16T05:56:00;22.30;82.00
59572;DHT22;59406;45.602;11.904;2022-09-16T05:58:28;22.40;81.80
59572;DHT22;59406;45.602;11.904;2022-09-16T06:03:26;22.60;81.60
59572;DHT22;59406;45.602;11.904;2022-09-16T06:05:59;22.60;81.50
59572;DHT22;59406;45.602;11.904;2022-09-16T06:08:25;22.90;81.20
59572;DHT22;59406;45.602;11.904;2022-09-16T06:10:53;23.00;81.00
59572;DHT22;59406;45.602;11.904;2022-09-16T06:13:19;23.30;80.90
59572;DHT22;59406;45.602;11.904;2022-09-16T06:15:51;23.70;81.70
59572;DHT22;59406;45.602;11.904;2022-09-16T06:18:23;23.90;80.90
59572;DHT22;59406;45.602;11.904;2022-09-16T06:20:50;24.10;80.70
59572;DHT22;59406;45.602;11.904;2022-09-16T06:23:16;24.50;80.30
59572;DHT22;59406;45.602;11.904;2022-09-16T06:25:43;24.80;80.00
59572;DHT22;59406;45.602;11.904;2022-09-16T06:28:08;25.10;79.60
59572;DHT22;59406;45.602;11.904;2022-09-16T06:30:37;25.40;78.70
59572;DHT22;59406;45.602;11.904;2022-09-16T06:33:03;25.40;78.90
59572;DHT22;59406;45.602;11.904;2022-09-16T06:35:30;25.40;78.40
59572;DHT22;59406;45.602;11.904;2022-09-16T06:37:56;25.40;78.30
59572;DHT22;59406;45.602;11.904;2022-09-16T06:40:22;25.30;78.40
59572;DHT22;59406;45.602;11.904;2022-09-16T06:42:52;25.40;78.30
59572;DHT22;59406;45.602;11.904;2022-09-16T06:45:20;25.40;78.20
59572;DHT22;59406;45.602;11.904;2022-09-16T06:47:46;25.40;78.40
59572;DHT22;59406;45.602;11.904;2022-09-16T06:50:11;25.50;78.60
59572;DHT22;59406;45.602;11.904;2022-09-16T06:52:37;25.60;78.00
59572;DHT22;59406;45.602;11.904;2022-09-16T06:55:04;25.70;77.60
59572;DHT22;59406;45.602;11.904;2022-09-16T06:57:30;25.80;78.10
59572;DHT22;59406;45.602;11.904;2022-09-16T06:59:56;26.00;77.90
59572;DHT22;59406;45.602;11.904;2022-09-16T07:02:22;26.40;77.90
59572;DHT22;59406;45.602;11.904;2022-09-16T07:04:48;26.40;77.60
59572;DHT22;59406;45.602;11.904;2022-09-16T07:07:14;26.80;77.40
59572;DHT22;59406;45.602;11.904;2022-09-16T07:09:40;26.80;77.30
59572;DHT22;59406;45.602;11.904;2022-09-16T07:12:06;27.10;76.70
59572;DHT22;59406;45.602;11.904;2022-09-16T07:14:33;27.70;76.30
59572;DHT22;59406;45.602;11.904;2022-09-16T07:17:00;28.00;74.90
59572;DHT22;59406;45.602;11.904;2022-09-16T07:19:27;28.10;74.80
59572;DHT22;59406;45.602;11.904;2022-09-16T07:21:53;27.90;75.20
59572;DHT22;59406;45.602;11.904;2022-09-16T07:24:19;27.70;75.50
59572;DHT22;59406;45.602;11.904;2022-09-16T07:26:45;28.20;75.30
59572;DHT22;59406;45.602;11.904;2022-09-16T07:29:17;28.40;74.50
59572;DHT22;59406;45.602;11.904;2022-09-16T07:31:45;28.70;73.90
59572;DHT22;59406;45.602;11.904;2022-09-16T07:34:12;29.10;73.50
59572;DHT22;59406;45.602;11.904;2022-09-16T07:36:44;29.10;73.00
59572;DHT22;59406;45.602;11.904;2022-09-16T07:39:11;28.80;72.70
59572;DHT22;59406;45.602;11.904;2022-09-16T07:41:40;28.50;72.90
59572;DHT22;59406;45.602;11.904;2022-09-16T07:44:10;28.50;73.10
59572;DHT22;59406;45.602;11.904;2022-09-16T07:46:37;28.90;72.20
59572;DHT22;59406;45.602;11.904;2022-09-16T07:49:05;29.00;71.40
59572;DHT22;59406;45.602;11.904;2022-09-16T07:51:32;29.30;69.20
59572;DHT22;59406;45.602;11.904;2022-09-16T07:54:01;29.20;71.10
59572;DHT22;59406;45.602;11.904;2022-09-16T07:56:30;29.40;69.00
59572;DHT22;59406;45.602;11.904;2022-09-16T07:58:57;29.30;68.10
59572;DHT22;59406;45.602;11.904;2022-09-16T08:01:24;30.00;68.20
59572;DHT22;59406;45.602;11.904;2022-09-16T08:03:50;30.60;65.90
59572;DHT22;59406;45.602;11.904;2022-09-16T08:06:18;30.30;65.20
59572;DHT22;59406;45.602;11.904;2022-09-16T08:08:45;30.30;65.00
59572;DHT22;59406;45.602;11.904;2022-09-16T08:11:12;30.30;65.60
59572;DHT22;59406;45.602;11.904;2022-09-16T08:13:40;30.70;65.10
59572;DHT22;59406;45.602;11.904;2022-09-16T08:16:10;30.60;65.00
59572;DHT22;59406;45.602;11.904;2022-09-16T08:18:37;30.40;65.10
59572;DHT22;59406;45.602;11.904;2022-09-16T08:21:07;30.40;65.70
59572;DHT22;59406;45.602;11.904;2022-09-16T08:23:34;30.60;66.10
59572;DHT22;59406;45.602;11.904;2022-09-16T08:26:01;30.70;63.10
59572;DHT22;59406;45.602;11.904;2022-09-16T08:28:28;30.90;62.80
59572;DHT22;59406;45.602;11.904;2022-09-16T08:30:57;31.20;63.80
59572;DHT22;59406;45.602;11.904;2022-09-16T08:33:22;31.00;63.20
59572;DHT22;59406;45.602;11.904;2022-09-16T08:36:02;31.40;62.40
59572;DHT22;59406;45.602;11.904;2022-09-16T08:38:29;31.90;59.90
59572;DHT22;59406;45.602;11.904;2022-09-16T08:41:03;32.10;58.80
59572;DHT22;59406;45.602;11.904;2022-09-16T08:43:41;31.90;58.70
59572;DHT22;59406;45.602;11.904;2022-09-16T08:46:28;31.70;60.40
59572;DHT22;59406;45.602;11.904;2022-09-16T08:51:27;32.80;57.60
59572;DHT22;59406;45.602;11.904;2022-09-16T08:56:27;32.70;56.50
59572;DHT22;59406;45.602;11.904;2022-09-16T08:58:59;33.20;57.20
59572;DHT22;59406;45.602;11.904;2022-09-16T09:01:37;33.60;55.10
59572;DHT22;59406;45.602;11.904;2022-09-16T09:30:26;34.20;53.10
59572;DHT22;59406;45.602;11.904;2022-09-16T09:41:30;33.30;54.40
59572;DHT22;59406;45.602;11.904;2022-09-16T09:44:24;33.70;53.70
59572;DHT22;59406;45.602;11.904;2022-09-16T09:46:56;34.50;52.70
59572;DHT22;59406;45.602;11.904;2022-09-16T09:49:34;34.40;52.10
59572;DHT22;59406;45.602;11.904;2022-09-16T09:55:19;34.20;52.90
59572;DHT22;59406;45.602;11.904;2022-09-16T09:58:20;35.00;50.40
59572;DHT22;59406;45.602;11.904;2022-09-16T10:00:48;34.70;48.70
59572;DHT22;59406;45.602;11.904;2022-09-16T10:03:18;35.20;50.20
59572;DHT22;59406;45.602;11.904;2022-09-16T10:05:46;35.60;48.10
59572;DHT22;59406;45.602;11.904;2022-09-16T10:10:57;34.30;52.20
59572;DHT22;59406;45.602;11.904;2022-09-16T10:13:25;34.40;51.90
59572;DHT22;59406;45.602;11.904;2022-09-16T10:16:06;35.00;48.90
59572;DHT22;59406;45.602;11.904;2022-09-16T10:18:35;35.00;49.00
59572;DHT22;59406;45.602;11.904;2022-09-16T10:21:08;35.50;47.80
59572;DHT22;59406;45.602;11.904;2022-09-16T10:23:35;37.10;47.30
59572;DHT22;59406;45.602;11.904;2022-09-16T10:26:13;37.20;46.50
59572;DHT22;59406;45.602;11.904;2022-09-16T10:28:41;36.30;47.00
59572;DHT22;59406;45.602;11.904;2022-09-16T10:33:47;36.40;46.10
59572;DHT22;59406;45.602;11.904;2022-09-16T10:36:21;36.10;46.50
59572;DHT22;59406;45.602;11.904;2022-09-16T10:38:57;36.00;45.80
59572;DHT22;59406;45.602;11.904;2022-09-16T10:41:33;36.20;46.10
59572;DHT22;59406;45.602;11.904;2022-09-16T10:44:03;37.00;45.30
59572;DHT22;59406;45.602;11.904;2022-09-16T10:46:32;37.10;45.30
59572;DHT22;59406;45.602;11.904;2022-09-16T10:49:09;36.10;45.30
59572;DHT22;59406;45.602;11.904;2022-09-16T10:51:37;35.80;46.20
59572;DHT22;59406;45.602;11.904;2022-09-16T10:54:04;35.50;45.30
59572;DHT22;59406;45.602;11.904;2022-09-16T10:56:33;35.90;45.80
59572;DHT22;59406;45.602;11.904;2022-09-16T10:59:10;37.20;43.30
59572;DHT22;59406;45.602;11.904;2022-09-16T11:09:55;37.60;41.90
59572;DHT22;59406;45.602;11.904;2022-09-16T11:12:43;37.70;42.00
59572;DHT22;59406;45.602;11.904;2022-09-16T11:15:39;37.40;40.60
59572;DHT22;59406;45.602;11.904;2022-09-16T11:21:09;35.50;45.00
59572;DHT22;59406;45.602;11.904;2022-09-16T11:24:30;37.10;44.20
59572;DHT22;59406;45.602;11.904;2022-09-16T11:32:33;38.20;40.40
59572;DHT22;59406;45.602;11.904;2022-09-16T11:41:09;35.60;43.90
59572;DHT22;59406;45.602;11.904;2022-09-16T11:49:20;38.50;41.50
59572;DHT22;59406;45.602;11.904;2022-09-16T11:54:51;39.60;39.30
59572;DHT22;59406;45.602;11.904;2022-09-16T11:57:25;39.20;39.90
59572;DHT22;59406;45.602;11.904;2022-09-16T11:59:57;39.40;38.70
59572;DHT22;59406;45.602;11.904;2022-09-16T12:02:36;39.90;38.40
59572;DHT22;59406;45.602;11.904;2022-09-16T12:10:51;38.20;41.40
59572;DHT22;59406;45.602;11.904;2022-09-16T12:13:28;38.40;39.70
59572;DHT22;59406;45.602;11.904;2022-09-16T12:18:41;40.40;36.60
59572;DHT22;59406;45.602;11.904;2022-09-16T12:21:37;40.70;37.10
59572;DHT22;59406;45.602;11.904;2022-09-16T12:24:16;38.50;39.30
59572;DHT22;59406;45.602;11.904;2022-09-16T12:27:08;37.80;40.20
59572;DHT22;59406;45.602;11.904;2022-09-16T12:29:59;38.60;41.10
59572;DHT22;59406;45.602;11.904;2022-09-16T12:32:47;38.70;41.00
59572;DHT22;59406;45.602;11.904;2022-09-16T12:35:20;39.50;38.70
59572;DHT22;59406;45.602;11.904;2022-09-16T12:37:51;38.90;39.60
59572;DHT22;59406;45.602;11.904;2022-09-16T12:40:19;36.60;42.80
59572;DHT22;59406;45.602;11.904;2022-09-16T12:50:48;39.90;38.20
59572;DHT22;59406;45.602;11.904;2022-09-16T13:01:42;40.60;36.60
59572;DHT22;59406;45.602;11.904;2022-09-16T13:06:48;40.80;35.70
59572;DHT22;59406;45.602;11.904;2022-09-16T13:09:24;40.30;36.00
59572;DHT22;59406;45.602;11.904;2022-09-16T13:11:56;40.00;36.50
59572;DHT22;59406;45.602;11.904;2022-09-16T13:14:29;39.20;37.50
59572;DHT22;59406;45.602;11.904;2022-09-16T13:16:57;37.80;39.50
59572;DHT22;59406;45.602;11.904;2022-09-16T13:19:59;37.40;40.40
59572;DHT22;59406;45.602;11.904;2022-09-16T13:25:25;36.50;42.00
59572;DHT22;59406;45.602;11.904;2022-09-16T13:28:19;35.90;43.30
59572;DHT22;59406;45.602;11.904;2022-09-16T13:30:47;35.50;44.20
59572;DHT22;59406;45.602;11.904;2022-09-16T13:33:27;35.10;44.70
59572;DHT22;59406;45.602;11.904;2022-09-16T13:36:15;34.10;47.80
59572;DHT22;59406;45.602;11.904;2022-09-16T13:38:50;33.60;48.00
59572;DHT22;59406;45.602;11.904;2022-09-16T13:41:43;33.00;49.30
59572;DHT22;59406;45.602;11.904;2022-09-16T13:52:38;33.20;49.80
59572;DHT22;59406;45.602;11.904;2022-09-16T13:55:22;33.00;50.50
59572;DHT22;59406;45.602;11.904;2022-09-16T14:11:55;31.90;56.30
59572;DHT22;59406;45.602;11.904;2022-09-16T14:14:25;32.70;52.50
59572;DHT22;59406;45.602;11.904;2022-09-16T14:16:53;33.20;53.30
59572;DHT22;59406;45.602;11.904;2022-09-16T14:22:15;34.10;48.60
59572;DHT22;59406;45.602;11.904;2022-09-16T14:24:42;34.30;49.60
59572;DHT22;59406;45.602;11.904;2022-09-16T14:27:32;33.80;49.60
59572;DHT22;59406;45.602;11.904;2022-09-16T14:30:12;34.10;48.60
59572;DHT22;59406;45.602;11.904;2022-09-16T14:32:40;34.20;48.90
59572;DHT22;59406;45.602;11.904;2022-09-16T14:35:15;33.80;47.90
59572;DHT22;59406;45.602;11.904;2022-09-16T14:37:45;33.80;48.60
59572;DHT22;59406;45.602;11.904;2022-09-16T14:40:15;33.60;49.50
59572;DHT22;59406;45.602;11.904;2022-09-16T14:42:56;33.70;48.70
59572;DHT22;59406;45.602;11.904;2022-09-16T14:45:23;34.20;48.50
59572;DHT22;59406;45.602;11.904;2022-09-16T14:47:51;34.80;47.40
59572;DHT22;59406;45.602;11.904;2022-09-16T14:50:29;34.40;46.80
59572;DHT22;59406;45.602;11.904;2022-09-16T14:53:02;33.40;49.60
59572;DHT22;59406;45.602;11.904;2022-09-16T14:55:30;32.90;52.90
59572;DHT22;59406;45.602;11.904;2022-09-16T14:57:59;32.90;52.70
59572;DHT22;59406;45.602;11.904;2022-09-16T15:00:35;32.60;51.90
59572;DHT22;59406;45.602;11.904;2022-09-16T15:03:28;31.90;53.10
59572;DHT22;59406;45.602;11.904;2022-09-16T15:05:58;31.10;57.00
59572;DHT22;59406;45.602;11.904;2022-09-16T15:08:48;31.00;57.40
59572;DHT22;59406;45.602;11.904;2022-09-16T15:11:18;30.90;57.30
59572;DHT22;59406;45.602;11.904;2022-09-16T15:13:46;31.40;56.10
59572;DHT22;59406;45.602;11.904;2022-09-16T15:16:17;31.60;56.10
59572;DHT22;59406;45.602;11.904;2022-09-16T15:19:02;31.50;56.00
59572;DHT22;59406;45.602;11.904;2022-09-16T15:21:33;31.40;56.40
59572;DHT22;59406;45.602;11.904;2022-09-16T15:24:13;31.30;57.20
59572;DHT22;59406;45.602;11.904;2022-09-16T15:26:42;31.80;54.70
59572;DHT22;59406;45.602;11.904;2022-09-16T15:31:45;31.70;55.00
59572;DHT22;59406;45.602;11.904;2022-09-16T15:36:51;31.60;56.00
59572;DHT22;59406;45.602;11.904;2022-09-16T15:44:33;29.80;60.80
59572;DHT22;59406;45.602;11.904;2022-09-16T15:47:01;29.90;60.50
59572;DHT22;59406;45.602;11.904;2022-09-16T15:49:29;30.10;61.10
59572;DHT22;59406;45.602;11.904;2022-09-16T15:52:05;29.80;61.30
59572;DHT22;59406;45.602;11.904;2022-09-16T15:54:40;29.60;60.70
59572;DHT22;59406;45.602;11.904;2022-09-16T15:57:41;29.00;64.10
59572;DHT22;59406;45.602;11.904;2022-09-16T16:00:10;29.00;65.40
59572;DHT22;59406;45.602;11.904;2022-09-16T16:02:55;29.40;61.70
59572;DHT22;59406;45.602;11.904;2022-09-16T16:05:24;29.80;61.90
59572;DHT22;59406;45.602;11.904;2022-09-16T16:08:03;29.10;62.70
59572;DHT22;59406;45.602;11.904;2022-09-16T16:10:31;28.80;64.80
59572;DHT22;59406;45.602;11.904;2022-09-16T16:13:00;28.50;66.60
59572;DHT22;59406;45.602;11.904;2022-09-16T16:15:33;28.50;67.40
59572;DHT22;59406;45.602;11.904;2022-09-16T16:18:05;28.70;67.10
59572;DHT22;59406;45.602;11.904;2022-09-16T16:20:32;29.00;66.20
59572;DHT22;59406;45.602;11.904;2022-09-16T16:22:59;29.10;63.30
59572;DHT22;59406;45.602;11.904;2022-09-16T16:25:25;29.20;62.40
59572;DHT22;59406;45.602;11.904;2022-09-16T16:27:52;29.20;62.70
59572;DHT22;59406;45.602;11.904;2022-09-16T16:30:18;29.00;65.00
59572;DHT22;59406;45.602;11.904;2022-09-16T16:32:44;28.70;65.90
59572;DHT22;59406;45.602;11.904;2022-09-16T16:35:11;28.70;65.80
59572;DHT22;59406;45.602;11.904;2022-09-16T16:37:37;28.60;66.70
59572;DHT22;59406;45.602;11.904;2022-09-16T16:40:04;28.60;67.80
59572;DHT22;59406;45.602;11.904;2022-09-16T16:42:31;28.00;68.60
59572;DHT22;59406;45.602;11.904;2022-09-16T16:44:57;27.70;69.80
59572;DHT22;59406;45.602;11.904;2022-09-16T16:47:23;27.40;70.30
59572;DHT22;59406;45.602;11.904;2022-09-16T16:49:49;27.30;70.30
59572;DHT22;59406;45.602;11.904;2022-09-16T16:52:16;27.40;70.40
59572;DHT22;59406;45.602;11.904;2022-09-16T16:54:42;27.60;70.10
59572;DHT22;59406;45.602;11.904;2022-09-16T16:57:09;27.50;70.30
59572;DHT22;59406;45.602;11.904;2022-09-16T16:59:36;27.40;70.40
59572;DHT22;59406;45.602;11.904;2022-09-16T17:02:02;27.40;70.40
59572;DHT22;59406;45.602;11.904;2022-09-16T17:04:29;27.30;70.10
59572;DHT22;59406;45.602;11.904;2022-09-16T17:06:55;27.30;70.50
59572;DHT22;59406;45.602;11.904;2022-09-16T17:09:22;27.20;70.40
59572;DHT22;59406;45.602;11.904;2022-09-16T17:11:59;27.00;70.80
59572;DHT22;59406;45.602;11.904;2022-09-16T17:14:27;26.80;71.20
59572;DHT22;59406;45.602;11.904;2022-09-16T17:16:54;26.50;71.60
59572;DHT22;59406;45.602;11.904;2022-09-16T17:19:23;26.50;71.60
59572;DHT22;59406;45.602;11.904;2022-09-16T17:21:50;26.40;71.80
59572;DHT22;59406;45.602;11.904;2022-09-16T17:24:16;26.20;71.50
59572;DHT22;59406;45.602;11.904;2022-09-16T17:26:43;26.30;71.50
59572;DHT22;59406;45.602;11.904;2022-09-16T17:29:10;26.10;71.50
59572;DHT22;59406;45.602;11.904;2022-09-16T17:31:36;25.90;71.80
59572;DHT22;59406;45.602;11.904;2022-09-16T17:34:08;25.90;72.30
59572;DHT22;59406;45.602;11.904;2022-09-16T17:36:40;26.10;71.90
59572;DHT22;59406;45.602;11.904;2022-09-16T17:39:13;26.10;72.10
59572;DHT22;59406;45.602;11.904;2022-09-16T17:41:41;25.90;72.30
59572;DHT22;59406;45.602;11.904;2022-09-16T17:44:11;25.90;72.00
59572;DHT22;59406;45.602;11.904;2022-09-16T17:46:39;26.10;71.90
59572;DHT22;59406;45.602;11.904;2022-09-16T17:49:07;26.10;72.10
59572;DHT22;59406;45.602;11.904;2022-09-16T17:51:35;26.10;72.20
59572;DHT22;59406;45.602;11.904;2022-09-16T17:54:01;26.00;73.60
59572;DHT22;59406;45.602;11.904;2022-09-16T17:56:31;24.80;79.10
59572;DHT22;59406;45.602;11.904;2022-09-16T17:58:57;23.30;81.50
59572;DHT22;59406;45.602;11.904;2022-09-16T18:01:25;22.50;83.30
59572;DHT22;59406;45.602;11.904;2022-09-16T18:03:52;22.10;83.70
59572;DHT22;59406;45.602;11.904;2022-09-16T18:06:19;22.10;84.20
59572;DHT22;59406;45.602;11.904;2022-09-16T18:08:47;22.00;84.50
59572;DHT22;59406;45.602;11.904;2022-09-16T18:11:15;21.90;84.50
59572;DHT22;59406;45.602;11.904;2022-09-16T18:13:42;21.80;84.90
59572;DHT22;59406;45.602;11.904;2022-09-16T18:16:11;21.70;84.70
59572;DHT22;59406;45.602;11.904;2022-09-16T18:18:39;21.70;84.70
59572;DHT22;59406;45.602;11.904;2022-09-16T18:21:07;21.80;84.40
59572;DHT22;59406;45.602;11.904;2022-09-16T18:23:34;21.80;84.30
59572;DHT22;59406;45.602;11.904;2022-09-16T18:26:09;21.90;83.30
59572;DHT22;59406;45.602;11.904;2022-09-16T18:28:37;22.00;83.50
59572;DHT22;59406;45.602;11.904;2022-09-16T18:31:05;21.90;83.20
59572;DHT22;59406;45.602;11.904;2022-09-16T18:33:32;21.90;83.20
59572;DHT22;59406;45.602;11.904;2022-09-16T18:36:05;21.80;84.00
59572;DHT22;59406;45.602;11.904;2022-09-16T18:38:32;21.90;84.20
59572;DHT22;59406;45.602;11.904;2022-09-16T18:41:19;21.90;83.50
59572;DHT22;59406;45.602;11.904;2022-09-16T18:43:50;21.90;83.60
59572;DHT22;59406;45.602;11.904;2022-09-16T18:46:17;21.90;83.30
59572;DHT22;59406;45.602;11.904;2022-09-16T18:48:45;21.90;82.90
59572;DHT22;59406;45.602;11.904;2022-09-16T18:53:46;22.00;82.60
59572;DHT22;59406;45.602;11.904;2022-09-16T18:56:15;21.90;82.60
59572;DHT22;59406;45.602;11.904;2022-09-16T18:58:42;22.00;82.60
59572;DHT22;59406;45.602;11.904;2022-09-16T19:03:47;21.90;82.40
59572;DHT22;59406;45.602;11.904;2022-09-16T19:06:13;21.90;82.30